sensor_id;sensor_type;location;lat;lon;timestamp;temperature;humidity
41630;DHT22;27322;49.488;8.480;2023-12-29T00:00:35;10.90;99.90
41630;DHT22;27322;49.488;8.480;2023-12-29T00:03:00;10.80;99.90
41630;DHT22;27322;49.488;8.480;2023-12-29T00:05:26;10.90;99.90
41630;DHT22;27322;49.488;8.480;2023-12-29T00:07:52;10.80;99.90
41630;DHT22;27322;49.488;8.480;2023-12-29T00:10:18;10.80;99.90
41630;DHT22;27322;49.488;8.480;2023-12-29T00:12:44;10.80;99.90
41630;DHT22;27322;49.488;8.480;2023-12-29T00:15:10;10.80;99.90
41630;DHT22;27322;49.488;8.480;2023-12-29T00:17:36;10.80;99.90
41630;DHT22;27322;49.488;8.480;2023-12-29T00:20:04;10.80;99.90
41630;DHT22;27322;49.488;8.480;2023-12-29T00:22:30;10.80;99.90
41630;DHT22;27322;49.488;8.480;2023-12-29T00:24:55;10.80;99.90
41630;DHT22;27322;49.488;8.480;2023-12-29T00:27:21;10.80;99.90
41630;DHT22;27322;49.488;8.480;2023-12-29T00:29:46;10.80;99.90
41630;DHT22;27322;49.488;8.480;2023-12-29T00:32:12;10.80;99.90
41630;DHT22;27322;49.488;8.480;2023-12-29T00:34:38;10.80;99.90
41630;DHT22;27322;49.488;8.480;2023-12-29T00:37:03;10.80;99.90
41630;DHT22;27322;49.488;8.480;2023-12-29T00:39:30;10.80;99.90
41630;DHT22;27322;49.488;8.480;2023-12-29T00:41:56;10.80;99.90
41630;DHT22;27322;49.488;8.480;2023-12-29T00:44:23;10.80;99.90
41630;DHT22;27322;49.488;8.480;2023-12-29T00:46:49;10.80;99.90
41630;DHT22;27322;49.488;8.480;2023-12-29T00:49:14;10.80;99.90
41630;DHT22;27322;49.488;8.480;2023-12-29T00:51:40;10.80;99.90
41630;DHT22;27322;49.488;8.480;2023-12-29T00:54:07;10.80;99.90
41630;DHT22;27322;49.488;8.480;2023-12-29T00:56:32;10.80;99.90
41630;DHT22;27322;49.488;8.480;2023-12-29T00:58:58;10.80;99.90
41630;DHT22;27322;49.488;8.480;2023-12-29T01:01:24;10.80;99.90
41630;DHT22;27322;49.488;8.480;2023-12-29T01:03:49;10.80;99.90
41630;DHT22;27322;49.488;8.480;2023-12-29T01:06:15;10.80;99.90
41630;DHT22;27322;49.488;8.480;2023-12-29T01:08:40;10.80;99.90
41630;DHT22;27322;49.488;8.480;2023-12-29T01:11:06;10.90;99.90
41630;DHT22;27322;49.488;8.480;2023-12-29T01:13:32;10.90;99.90
41630;DHT22;27322;49.488;8.480;2023-12-29T01:15:57;10.80;99.90
41630;DHT22;27322;49.488;8.480;2023-12-29T01:18:23;10.90;99.90
41630;DHT22;27322;49.488;8.480;2023-12-29T01:20:48;10.80;99.90
41630;DHT22;27322;49.488;8.480;2023-12-29T01:23:14;10.80;99.90
41630;DHT22;27322;49.488;8.480;2023-12-29T01:25:40;10.90;99.90
41630;DHT22;27322;49.488;8.480;2023-12-29T01:28:05;10.80;99.90
41630;DHT22;27322;49.488;8.480;2023-12-29T01:30:31;10.80;99.90
41630;DHT22;27322;49.488;8.480;2023-12-29T01:32:56;10.90;99.90
41630;DHT22;27322;49.488;8.480;2023-12-29T01:35:22;10.80;99.90
41630;DHT22;27322;49.488;8.480;2023-12-29T01:37:47;10.80;99.90
41630;DHT22;27322;49.488;8.480;2023-12-29T01:40:13;10.80;99.90
41630;DHT22;27322;49.488;8.480;2023-12-29T01:42:40;10.80;99.90
41630;DHT22;27322;49.488;8.480;2023-12-29T01:45:06;10.80;99.90
41630;DHT22;27322;49.488;8.480;2023-12-29T01:47:37;10.80;99.90
41630;DHT22;27322;49.488;8.480;2023-12-29T01:50:03;10.80;99.90
41630;DHT22;27322;49.488;8.480;2023-12-29T01:52:29;10.80;99.90
41630;DHT22;27322;49.488;8.480;2023-12-29T01:54:54;10.80;99.90
41630;DHT22;27322;49.488;8.480;2023-12-29T01:57:24;10.80;99.90
41630;DHT22;27322;49.488;8.480;2023-12-29T01:59:50;10.80;99.90
41630;DHT22;27322;49.488;8.480;2023-12-29T02:02:16;10.80;99.90
41630;DHT22;27322;49.488;8.480;2023-12-29T02:04:42;10.80;99.90
41630;DHT22;27322;49.488;8.480;2023-12-29T02:07:08;10.80;99.90
41630;DHT22;27322;49.488;8.480;2023-12-29T02:09:34;10.70;99.90
41630;DHT22;27322;49.488;8.480;2023-12-29T02:12:00;10.80;99.90
41630;DHT22;27322;49.488;8.480;2023-12-29T02:14:26;10.80;99.90
41630;DHT22;27322;49.488;8.480;2023-12-29T02:17:14;10.70;99.90
41630;DHT22;27322;49.488;8.480;2023-12-29T02:19:43;10.70;99.90
41630;DHT22;27322;49.488;8.480;2023-12-29T02:22:12;10.80;99.90
41630;DHT22;27322;49.488;8.480;2023-12-29T02:24:38;10.80;99.90
41630;DHT22;27322;49.488;8.480;2023-12-29T02:27:18;10.80;99.90
41630;DHT22;27322;49.488;8.480;2023-12-29T02:29:53;10.70;99.90
41630;DHT22;27322;49.488;8.480;2023-12-29T02:32:22;10.80;99.90
41630;DHT22;27322;49.488;8.480;2023-12-29T02:34:50;10.70;99.90
41630;DHT22;27322;49.488;8.480;2023-12-29T02:37:18;10.80;99.90
41630;DHT22;27322;49.488;8.480;2023-12-29T02:39:44;10.80;99.90
41630;DHT22;27322;49.488;8.480;2023-12-29T02:42:10;10.80;99.90
41630;DHT22;27322;49.488;8.480;2023-12-29T02:44:35;10.80;99.90
41630;DHT22;27322;49.488;8.480;2023-12-29T02:47:01;10.80;99.90
41630;DHT22;27322;49.488;8.480;2023-12-29T02:49:29;10.80;99.90
41630;DHT22;27322;49.488;8.480;2023-12-29T02:51:54;10.80;99.90
41630;DHT22;27322;49.488;8.480;2023-12-29T02:54:20;10.80;99.90
41630;DHT22;27322;49.488;8.480;2023-12-29T02:56:46;10.80;99.90
41630;DHT22;27322;49.488;8.480;2023-12-29T02:59:11;10.80;99.90
41630;DHT22;27322;49.488;8.480;2023-12-29T03:01:37;10.80;99.90
41630;DHT22;27322;49.488;8.480;2023-12-29T03:04:02;10.80;99.90
41630;DHT22;27322;49.488;8.480;2023-12-29T03:06:28;10.80;99.90
41630;DHT22;27322;49.488;8.480;2023-12-29T03:08:54;10.80;99.90
41630;DHT22;27322;49.488;8.480;2023-12-29T03:11:19;10.80;99.90
41630;DHT22;27322;49.488;8.480;2023-12-29T03:13:45;10.80;99.90
41630;DHT22;27322;49.488;8.480;2023-12-29T03:16:10;10.80;99.90
41630;DHT22;27322;49.488;8.480;2023-12-29T03:18:36;10.80;99.90
41630;DHT22;27322;49.488;8.480;2023-12-29T03:21:05;10.80;99.90
41630;DHT22;27322;49.488;8.480;2023-12-29T03:23:31;10.80;99.90
41630;DHT22;27322;49.488;8.480;2023-12-29T03:25:56;10.80;99.90
41630;DHT22;27322;49.488;8.480;2023-12-29T03:28:22;10.80;99.90
41630;DHT22;27322;49.488;8.480;2023-12-29T03:30:48;10.80;99.90
41630;DHT22;27322;49.488;8.480;2023-12-29T03:33:14;10.80;99.90
41630;DHT22;27322;49.488;8.480;2023-12-29T03:35:40;10.80;99.90
41630;DHT22;27322;49.488;8.480;2023-12-29T03:38:06;10.80;99.90
41630;DHT22;27322;49.488;8.480;2023-12-29T03:40:31;10.80;99.90
41630;DHT22;27322;49.488;8.480;2023-12-29T03:42:57;10.70;99.90
41630;DHT22;27322;49.488;8.480;2023-12-29T03:45:22;10.80;99.90
41630;DHT22;27322;49.488;8.480;2023-12-29T03:47:48;10.80;99.90
41630;DHT22;27322;49.488;8.480;2023-12-29T03:50:14;10.80;99.90
41630;DHT22;27322;49.488;8.480;2023-12-29T03:52:39;10.80;99.90
41630;DHT22;27322;49.488;8.480;2023-12-29T03:55:05;10.80;99.90
41630;DHT22;27322;49.488;8.480;2023-12-29T03:57:31;10.80;99.90
41630;DHT22;27322;49.488;8.480;2023-12-29T03:59:57;10.80;99.90
41630;DHT22;27322;49.488;8.480;2023-12-29T04:02:22;10.80;99.90
41630;DHT22;27322;49.488;8.480;2023-12-29T04:04:48;10.80;99.90
41630;DHT22;27322;49.488;8.480;2023-12-29T04:07:13;10.80;99.90
41630;DHT22;27322;49.488;8.480;2023-12-29T04:09:39;10.90;99.90
41630;DHT22;27322;49.488;8.480;2023-12-29T04:12:05;10.90;99.90
41630;DHT22;27322;49.488;8.480;2023-12-29T04:14:30;10.90;99.90
41630;DHT22;27322;49.488;8.480;2023-12-29T04:16:56;10.90;99.90
41630;DHT22;27322;49.488;8.480;2023-12-29T04:19:21;10.90;99.90
41630;DHT22;27322;49.488;8.480;2023-12-29T04:21:47;10.90;99.90
41630;DHT22;27322;49.488;8.480;2023-12-29T04:24:13;10.90;99.90
41630;DHT22;27322;49.488;8.480;2023-12-29T04:26:38;10.90;99.90
41630;DHT22;27322;49.488;8.480;2023-12-29T04:29:04;10.90;99.90
41630;DHT22;27322;49.488;8.480;2023-12-29T04:31:30;10.90;99.90
41630;DHT22;27322;49.488;8.480;2023-12-29T04:33:55;10.90;99.90
41630;DHT22;27322;49.488;8.480;2023-12-29T04:36:21;10.90;99.90
41630;DHT22;27322;49.488;8.480;2023-12-29T04:38:46;10.90;99.90
41630;DHT22;27322;49.488;8.480;2023-12-29T04:41:12;10.90;99.90
41630;DHT22;27322;49.488;8.480;2023-12-29T04:43:38;10.90;99.90
41630;DHT22;27322;49.488;8.480;2023-12-29T04:46:04;10.90;99.90
41630;DHT22;27322;49.488;8.480;2023-12-29T04:48:30;10.90;99.90
41630;DHT22;27322;49.488;8.480;2023-12-29T04:50:55;10.90;99.90
41630;DHT22;27322;49.488;8.480;2023-12-29T04:53:21;10.90;99.90
41630;DHT22;27322;49.488;8.480;2023-12-29T04:55:47;10.80;99.90
41630;DHT22;27322;49.488;8.480;2023-12-29T04:58:12;10.80;99.90
41630;DHT22;27322;49.488;8.480;2023-12-29T05:00:38;10.80;99.90
41630;DHT22;27322;49.488;8.480;2023-12-29T05:03:03;10.80;99.90
41630;DHT22;27322;49.488;8.480;2023-12-29T05:05:29;10.80;99.90
41630;DHT22;27322;49.488;8.480;2023-12-29T05:07:55;10.80;99.90
41630;DHT22;27322;49.488;8.480;2023-12-29T05:10:20;10.80;99.90
41630;DHT22;27322;49.488;8.480;2023-12-29T05:12:46;10.80;99.90
41630;DHT22;27322;49.488;8.480;2023-12-29T05:15:12;10.80;99.90
41630;DHT22;27322;49.488;8.480;2023-12-29T05:17:37;10.70;99.90
41630;DHT22;27322;49.488;8.480;2023-12-29T05:20:06;10.70;99.90
41630;DHT22;27322;49.488;8.480;2023-12-29T05:22:31;10.70;99.90
41630;DHT22;27322;49.488;8.480;2023-12-29T05:24:57;10.70;99.90
41630;DHT22;27322;49.488;8.480;2023-12-29T05:27:25;10.70;99.90
41630;DHT22;27322;49.488;8.480;2023-12-29T05:29:51;10.70;99.90
41630;DHT22;27322;49.488;8.480;2023-12-29T05:32:17;10.70;99.90
41630;DHT22;27322;49.488;8.480;2023-12-29T05:34:43;10.60;99.90
41630;DHT22;27322;49.488;8.480;2023-12-29T05:37:08;10.70;99.90
41630;DHT22;27322;49.488;8.480;2023-12-29T05:39:34;10.60;99.90
41630;DHT22;27322;49.488;8.480;2023-12-29T05:41:59;10.60;99.90
41630;DHT22;27322;49.488;8.480;2023-12-29T05:44:25;10.60;99.90
41630;DHT22;27322;49.488;8.480;2023-12-29T05:46:51;10.60;99.90
41630;DHT22;27322;49.488;8.480;2023-12-29T05:49:16;10.60;99.90
41630;DHT22;27322;49.488;8.480;2023-12-29T05:51:44;10.60;99.90
41630;DHT22;27322;49.488;8.480;2023-12-29T05:54:09;10.60;99.90
41630;DHT22;27322;49.488;8.480;2023-12-29T05:56:35;10.60;99.90
41630;DHT22;27322;49.488;8.480;2023-12-29T05:59:00;10.60;99.90
41630;DHT22;27322;49.488;8.480;2023-12-29T06:01:26;10.70;99.90
41630;DHT22;27322;49.488;8.480;2023-12-29T06:03:51;10.70;99.90
41630;DHT22;27322;49.488;8.480;2023-12-29T06:06:17;10.70;99.90
41630;DHT22;27322;49.488;8.480;2023-12-29T06:08:43;10.60;99.90
41630;DHT22;27322;49.488;8.480;2023-12-29T06:11:08;10.70;99.90
41630;DHT22;27322;49.488;8.480;2023-12-29T06:13:39;10.70;99.90
41630;DHT22;27322;49.488;8.480;2023-12-29T06:16:05;10.70;99.90
41630;DHT22;27322;49.488;8.480;2023-12-29T06:18:31;10.70;99.90
41630;DHT22;27322;49.488;8.480;2023-12-29T06:20:56;10.70;99.90
41630;DHT22;27322;49.488;8.480;2023-12-29T06:23:22;10.70;99.90
41630;DHT22;27322;49.488;8.480;2023-12-29T06:25:48;10.70;99.90
41630;DHT22;27322;49.488;8.480;2023-12-29T06:28:13;10.70;99.90
41630;DHT22;27322;49.488;8.480;2023-12-29T06:30:39;10.60;99.90
41630;DHT22;27322;49.488;8.480;2023-12-29T06:33:05;10.70;99.90
41630;DHT22;27322;49.488;8.480;2023-12-29T06:35:30;10.60;99.90
41630;DHT22;27322;49.488;8.480;2023-12-29T06:37:56;10.60;99.90
41630;DHT22;27322;49.488;8.480;2023-12-29T06:40:22;10.60;99.90
41630;DHT22;27322;49.488;8.480;2023-12-29T06:42:47;10.70;99.90
41630;DHT22;27322;49.488;8.480;2023-12-29T06:45:13;10.60;99.90
41630;DHT22;27322;49.488;8.480;2023-12-29T06:47:38;10.70;99.90
41630;DHT22;27322;49.488;8.480;2023-12-29T06:50:04;10.70;99.90
41630;DHT22;27322;49.488;8.480;2023-12-29T06:52:32;10.70;99.90
41630;DHT22;27322;49.488;8.480;2023-12-29T06:55:03;10.70;99.90
41630;DHT22;27322;49.488;8.480;2023-12-29T06:57:28;10.70;99.90
41630;DHT22;27322;49.488;8.480;2023-12-29T06:59:54;10.70;99.90
41630;DHT22;27322;49.488;8.480;2023-12-29T07:02:20;10.70;99.90
41630;DHT22;27322;49.488;8.480;2023-12-29T07:04:45;10.70;99.90
41630;DHT22;27322;49.488;8.480;2023-12-29T07:07:11;10.80;99.90
41630;DHT22;27322;49.488;8.480;2023-12-29T07:09:39;10.80;99.90
41630;DHT22;27322;49.488;8.480;2023-12-29T07:12:06;10.80;99.90
41630;DHT22;27322;49.488;8.480;2023-12-29T07:14:32;10.80;99.90
41630;DHT22;27322;49.488;8.480;2023-12-29T07:16:57;10.80;99.90
41630;DHT22;27322;49.488;8.480;2023-12-29T07:19:23;10.80;99.90
41630;DHT22;27322;49.488;8.480;2023-12-29T07:21:49;10.80;99.90
41630;DHT22;27322;49.488;8.480;2023-12-29T07:24:14;11.00;99.90
41630;DHT22;27322;49.488;8.480;2023-12-29T07:26:40;10.90;99.90
41630;DHT22;27322;49.488;8.480;2023-12-29T07:29:06;10.90;99.90
41630;DHT22;27322;49.488;8.480;2023-12-29T07:31:31;11.00;99.90
41630;DHT22;27322;49.488;8.480;2023-12-29T07:33:59;10.90;99.90
41630;DHT22;27322;49.488;8.480;2023-12-29T07:36:24;11.00;99.90
41630;DHT22;27322;49.488;8.480;2023-12-29T07:38:50;10.90;99.90
41630;DHT22;27322;49.488;8.480;2023-12-29T07:41:16;10.90;99.90
41630;DHT22;27322;49.488;8.480;2023-12-29T07:43:42;11.00;99.90
41630;DHT22;27322;49.488;8.480;2023-12-29T07:46:07;11.00;99.90
41630;DHT22;27322;49.488;8.480;2023-12-29T07:48:33;11.00;99.90
41630;DHT22;27322;49.488;8.480;2023-12-29T07:51:04;11.00;99.90
41630;DHT22;27322;49.488;8.480;2023-12-29T07:53:30;11.00;99.90
41630;DHT22;27322;49.488;8.480;2023-12-29T07:55:56;11.00;99.90
41630;DHT22;27322;49.488;8.480;2023-12-29T07:58:21;11.00;99.90
41630;DHT22;27322;49.488;8.480;2023-12-29T08:00:47;11.00;99.90
41630;DHT22;27322;49.488;8.480;2023-12-29T08:03:12;11.10;99.90
41630;DHT22;27322;49.488;8.480;2023-12-29T08:05:38;11.10;99.90
41630;DHT22;27322;49.488;8.480;2023-12-29T08:08:04;11.10;99.90
41630;DHT22;27322;49.488;8.480;2023-12-29T08:10:30;11.10;99.90
41630;DHT22;27322;49.488;8.480;2023-12-29T08:12:57;11.10;99.90
41630;DHT22;27322;49.488;8.480;2023-12-29T08:15:22;11.10;99.90
41630;DHT22;27322;49.488;8.480;2023-12-29T08:17:48;11.10;99.90
41630;DHT22;27322;49.488;8.480;2023-12-29T08:20:14;11.10;99.90
41630;DHT22;27322;49.488;8.480;2023-12-29T08:22:39;11.20;99.90
41630;DHT22;27322;49.488;8.480;2023-12-29T08:25:05;11.20;99.90
41630;DHT22;27322;49.488;8.480;2023-12-29T08:27:31;11.20;99.90
41630;DHT22;27322;49.488;8.480;2023-12-29T08:29:56;11.20;99.90
41630;DHT22;27322;49.488;8.480;2023-12-29T08:32:22;11.20;99.90
41630;DHT22;27322;49.488;8.480;2023-12-29T08:34:47;11.20;99.90
41630;DHT22;27322;49.488;8.480;2023-12-29T08:37:13;11.20;99.90
41630;DHT22;27322;49.488;8.480;2023-12-29T08:39:47;11.30;99.90
41630;DHT22;27322;49.488;8.480;2023-12-29T08:42:14;11.30;99.90
41630;DHT22;27322;49.488;8.480;2023-12-29T08:44:40;11.30;99.90
41630;DHT22;27322;49.488;8.480;2023-12-29T08:47:05;11.30;99.90
41630;DHT22;27322;49.488;8.480;2023-12-29T08:49:34;11.30;99.90
41630;DHT22;27322;49.488;8.480;2023-12-29T08:52:00;11.30;99.90
41630;DHT22;27322;49.488;8.480;2023-12-29T08:54:26;11.30;99.90
41630;DHT22;27322;49.488;8.480;2023-12-29T08:56:51;11.30;99.90
41630;DHT22;27322;49.488;8.480;2023-12-29T08:59:17;11.40;99.90
41630;DHT22;27322;49.488;8.480;2023-12-29T09:01:42;11.40;99.90
41630;DHT22;27322;49.488;8.480;2023-12-29T09:04:08;11.40;99.90
41630;DHT22;27322;49.488;8.480;2023-12-29T09:06:34;11.40;99.90
41630;DHT22;27322;49.488;8.480;2023-12-29T09:09:00;11.40;99.90
41630;DHT22;27322;49.488;8.480;2023-12-29T09:11:25;11.40;99.90
41630;DHT22;27322;49.488;8.480;2023-12-29T09:13:52;11.40;99.90
41630;DHT22;27322;49.488;8.480;2023-12-29T09:16:18;11.40;99.90
41630;DHT22;27322;49.488;8.480;2023-12-29T09:18:43;11.40;99.90
41630;DHT22;27322;49.488;8.480;2023-12-29T09:21:09;11.40;99.90
41630;DHT22;27322;49.488;8.480;2023-12-29T09:23:34;11.40;99.90
41630;DHT22;27322;49.488;8.480;2023-12-29T09:26:02;11.30;99.90
41630;DHT22;27322;49.488;8.480;2023-12-29T09:28:28;11.30;99.90
41630;DHT22;27322;49.488;8.480;2023-12-29T09:30:54;11.30;99.90
41630;DHT22;27322;49.488;8.480;2023-12-29T09:33:19;11.20;99.90
41630;DHT22;27322;49.488;8.480;2023-12-29T09:35:45;11.20;99.90
41630;DHT22;27322;49.488;8.480;2023-12-29T09:38:10;11.10;99.90
41630;DHT22;27322;49.488;8.480;2023-12-29T09:40:36;11.10;99.90
41630;DHT22;27322;49.488;8.480;2023-12-29T09:43:03;11.10;99.90
41630;DHT22;27322;49.488;8.480;2023-12-29T09:45:30;11.10;99.90
41630;DHT22;27322;49.488;8.480;2023-12-29T09:48:00;11.10;99.90
41630;DHT22;27322;49.488;8.480;2023-12-29T09:50:27;11.00;99.90
41630;DHT22;27322;49.488;8.480;2023-12-29T09:52:53;11.00;99.90
41630;DHT22;27322;49.488;8.480;2023-12-29T09:55:19;11.00;99.90
41630;DHT22;27322;49.488;8.480;2023-12-29T09:57:47;11.00;99.90
41630;DHT22;27322;49.488;8.480;2023-12-29T10:00:15;11.00;99.90
41630;DHT22;27322;49.488;8.480;2023-12-29T10:02:41;11.10;99.90
41630;DHT22;27322;49.488;8.480;2023-12-29T10:05:08;11.10;99.90
41630;DHT22;27322;49.488;8.480;2023-12-29T10:07:38;11.10;99.90
41630;DHT22;27322;49.488;8.480;2023-12-29T10:10:04;11.10;99.90
41630;DHT22;27322;49.488;8.480;2023-12-29T10:12:32;11.20;99.90
41630;DHT22;27322;49.488;8.480;2023-12-29T10:15:06;11.20;99.90
41630;DHT22;27322;49.488;8.480;2023-12-29T10:17:43;11.20;99.90
41630;DHT22;27322;49.488;8.480;2023-12-29T10:25:32;11.40;99.90
41630;DHT22;27322;49.488;8.480;2023-12-29T10:27:58;11.40;99.90
41630;DHT22;27322;49.488;8.480;2023-12-29T10:30:24;11.50;99.90
41630;DHT22;27322;49.488;8.480;2023-12-29T10:32:52;11.50;99.90
41630;DHT22;27322;49.488;8.480;2023-12-29T10:35:18;11.50;99.90
41630;DHT22;27322;49.488;8.480;2023-12-29T10:37:43;11.60;99.90
41630;DHT22;27322;49.488;8.480;2023-12-29T10:40:09;11.60;99.90
41630;DHT22;27322;49.488;8.480;2023-12-29T10:42:52;11.60;99.90
41630;DHT22;27322;49.488;8.480;2023-12-29T10:45:18;11.70;99.90
41630;DHT22;27322;49.488;8.480;2023-12-29T10:47:44;11.70;99.90
41630;DHT22;27322;49.488;8.480;2023-12-29T10:50:09;11.70;99.90
41630;DHT22;27322;49.488;8.480;2023-12-29T10:52:35;11.80;99.90
41630;DHT22;27322;49.488;8.480;2023-12-29T10:55:07;11.80;99.90
41630;DHT22;27322;49.488;8.480;2023-12-29T10:57:33;11.80;99.90
41630;DHT22;27322;49.488;8.480;2023-12-29T10:59:59;11.80;99.90
41630;DHT22;27322;49.488;8.480;2023-12-29T11:02:28;11.80;99.90
41630;DHT22;27322;49.488;8.480;2023-12-29T11:05:04;11.90;99.90
41630;DHT22;27322;49.488;8.480;2023-12-29T11:07:40;11.90;99.90
41630;DHT22;27322;49.488;8.480;2023-12-29T11:10:08;11.90;99.90
41630;DHT22;27322;49.488;8.480;2023-12-29T11:12:37;11.90;99.90
41630;DHT22;27322;49.488;8.480;2023-12-29T11:15:05;11.90;99.90
41630;DHT22;27322;49.488;8.480;2023-12-29T11:17:33;12.00;99.90
41630;DHT22;27322;49.488;8.480;2023-12-29T11:19:59;12.00;99.90
41630;DHT22;27322;49.488;8.480;2023-12-29T11:22:28;12.00;99.90
41630;DHT22;27322;49.488;8.480;2023-12-29T11:24:54;12.00;99.90
41630;DHT22;27322;49.488;8.480;2023-12-29T11:27:21;12.00;99.90
41630;DHT22;27322;49.488;8.480;2023-12-29T11:29:47;12.00;99.90
41630;DHT22;27322;49.488;8.480;2023-12-29T11:32:20;12.10;99.90
41630;DHT22;27322;49.488;8.480;2023-12-29T11:34:55;12.00;99.90
41630;DHT22;27322;49.488;8.480;2023-12-29T11:40:14;12.00;99.90
41630;DHT22;27322;49.488;8.480;2023-12-29T11:42:44;12.00;99.90
41630;DHT22;27322;49.488;8.480;2023-12-29T11:45:30;12.10;99.90
41630;DHT22;27322;49.488;8.480;2023-12-29T11:47:57;12.10;99.90
41630;DHT22;27322;49.488;8.480;2023-12-29T11:50:29;12.10;99.90
41630;DHT22;27322;49.488;8.480;2023-12-29T11:52:55;12.10;99.90
41630;DHT22;27322;49.488;8.480;2023-12-29T11:55:21;12.10;99.90
41630;DHT22;27322;49.488;8.480;2023-12-29T11:57:53;12.20;99.90
41630;DHT22;27322;49.488;8.480;2023-12-29T12:00:18;12.20;99.90
41630;DHT22;27322;49.488;8.480;2023-12-29T12:02:44;12.20;99.90
41630;DHT22;27322;49.488;8.480;2023-12-29T12:05:10;12.20;99.90
41630;DHT22;27322;49.488;8.480;2023-12-29T12:12:48;12.30;99.90
41630;DHT22;27322;49.488;8.480;2023-12-29T12:18:05;12.30;99.90
41630;DHT22;27322;49.488;8.480;2023-12-29T12:20:35;12.30;99.90
41630;DHT22;27322;49.488;8.480;2023-12-29T12:25:29;12.30;99.90
41630;DHT22;27322;49.488;8.480;2023-12-29T12:27:58;12.30;99.90
41630;DHT22;27322;49.488;8.480;2023-12-29T12:30:24;12.30;99.90
41630;DHT22;27322;49.488;8.480;2023-12-29T12:32:59;12.30;99.90
41630;DHT22;27322;49.488;8.480;2023-12-29T12:35:25;12.40;99.90
41630;DHT22;27322;49.488;8.480;2023-12-29T12:38:23;12.40;99.90
41630;DHT22;27322;49.488;8.480;2023-12-29T12:40:50;12.40;99.90
41630;DHT22;27322;49.488;8.480;2023-12-29T12:43:19;12.40;99.90
41630;DHT22;27322;49.488;8.480;2023-12-29T12:45:59;12.40;99.90
41630;DHT22;27322;49.488;8.480;2023-12-29T12:48:43;12.40;99.90
41630;DHT22;27322;49.488;8.480;2023-12-29T12:51:10;12.40;99.90
41630;DHT22;27322;49.488;8.480;2023-12-29T12:53:42;12.40;99.90
41630;DHT22;27322;49.488;8.480;2023-12-29T12:56:10;12.40;99.90
41630;DHT22;27322;49.488;8.480;2023-12-29T12:58:36;12.50;99.90
41630;DHT22;27322;49.488;8.480;2023-12-29T13:01:02;12.40;99.90
41630;DHT22;27322;49.488;8.480;2023-12-29T13:03:29;12.40;99.90
41630;DHT22;27322;49.488;8.480;2023-12-29T13:05:56;12.40;99.90
41630;DHT22;27322;49.488;8.480;2023-12-29T13:08:23;12.40;99.90
41630;DHT22;27322;49.488;8.480;2023-12-29T13:10:50;12.40;99.90
41630;DHT22;27322;49.488;8.480;2023-12-29T13:13:16;12.40;99.90
41630;DHT22;27322;49.488;8.480;2023-12-29T13:15:51;12.40;99.90
41630;DHT22;27322;49.488;8.480;2023-12-29T13:18:29;12.40;99.90
41630;DHT22;27322;49.488;8.480;2023-12-29T13:20:56;12.40;99.90
41630;DHT22;27322;49.488;8.480;2023-12-29T13:23:25;12.40;99.90
41630;DHT22;27322;49.488;8.480;2023-12-29T13:25:57;12.40;99.90
41630;DHT22;27322;49.488;8.480;2023-12-29T13:28:26;12.50;99.90
41630;DHT22;27322;49.488;8.480;2023-12-29T13:30:54;12.50;99.90
41630;DHT22;27322;49.488;8.480;2023-12-29T13:33:59;12.50;99.90
41630;DHT22;27322;49.488;8.480;2023-12-29T13:42:10;12.50;99.90
41630;DHT22;27322;49.488;8.480;2023-12-29T13:44:39;12.50;99.90
41630;DHT22;27322;49.488;8.480;2023-12-29T13:47:05;12.40;99.90
41630;DHT22;27322;49.488;8.480;2023-12-29T13:49:32;12.40;99.90
41630;DHT22;27322;49.488;8.480;2023-12-29T13:52:05;12.40;99.90
41630;DHT22;27322;49.488;8.480;2023-12-29T13:54:40;12.40;99.90
41630;DHT22;27322;49.488;8.480;2023-12-29T13:57:06;12.40;99.90
41630;DHT22;27322;49.488;8.480;2023-12-29T13:59:32;12.40;99.90
41630;DHT22;27322;49.488;8.480;2023-12-29T14:04:48;12.30;99.90
41630;DHT22;27322;49.488;8.480;2023-12-29T14:07:14;12.30;99.90
41630;DHT22;27322;49.488;8.480;2023-12-29T14:09:44;12.30;99.90
41630;DHT22;27322;49.488;8.480;2023-12-29T14:12:10;12.30;99.90
41630;DHT22;27322;49.488;8.480;2023-12-29T14:14:36;12.30;99.90
41630;DHT22;27322;49.488;8.480;2023-12-29T14:17:01;12.30;99.90
41630;DHT22;27322;49.488;8.480;2023-12-29T14:19:34;12.30;99.90
41630;DHT22;27322;49.488;8.480;2023-12-29T14:22:00;12.30;99.90
41630;DHT22;27322;49.488;8.480;2023-12-29T14:24:26;12.30;99.90
41630;DHT22;27322;49.488;8.480;2023-12-29T14:29:17;12.30;99.90
41630;DHT22;27322;49.488;8.480;2023-12-29T14:31:44;12.20;99.90
41630;DHT22;27322;49.488;8.480;2023-12-29T14:34:10;12.20;99.90
41630;DHT22;27322;49.488;8.480;2023-12-29T14:36:37;12.20;99.90
41630;DHT22;27322;49.488;8.480;2023-12-29T14:39:04;12.20;99.90
41630;DHT22;27322;49.488;8.480;2023-12-29T14:41:30;12.20;99.90
41630;DHT22;27322;49.488;8.480;2023-12-29T14:43:56;12.20;99.90
41630;DHT22;27322;49.488;8.480;2023-12-29T14:46:22;12.10;99.90
41630;DHT22;27322;49.488;8.480;2023-12-29T14:48:48;12.20;99.90
41630;DHT22;27322;49.488;8.480;2023-12-29T14:51:14;12.20;99.90
41630;DHT22;27322;49.488;8.480;2023-12-29T14:53:44;12.10;99.90
41630;DHT22;27322;49.488;8.480;2023-12-29T14:56:10;12.10;99.90
41630;DHT22;27322;49.488;8.480;2023-12-29T14:58:36;12.10;99.90
41630;DHT22;27322;49.488;8.480;2023-12-29T15:01:10;12.10;99.90
41630;DHT22;27322;49.488;8.480;2023-12-29T15:03:36;12.10;99.90
41630;DHT22;27322;49.488;8.480;2023-12-29T15:06:02;12.00;99.90
41630;DHT22;27322;49.488;8.480;2023-12-29T15:08:29;12.10;99.90
41630;DHT22;27322;49.488;8.480;2023-12-29T15:11:01;12.10;99.90
41630;DHT22;27322;49.488;8.480;2023-12-29T15:13:27;12.10;99.90
41630;DHT22;27322;49.488;8.480;2023-12-29T15:15:53;12.10;99.90
41630;DHT22;27322;49.488;8.480;2023-12-29T15:18:19;12.00;99.90
41630;DHT22;27322;49.488;8.480;2023-12-29T15:20:44;12.00;99.90
41630;DHT22;27322;49.488;8.480;2023-12-29T15:23:10;12.00;99.90
41630;DHT22;27322;49.488;8.480;2023-12-29T15:25:38;12.00;99.90
41630;DHT22;27322;49.488;8.480;2023-12-29T15:28:04;12.00;99.90
41630;DHT22;27322;49.488;8.480;2023-12-29T15:30:29;11.90;99.90
41630;DHT22;27322;49.488;8.480;2023-12-29T15:32:55;12.00;99.90
41630;DHT22;27322;49.488;8.480;2023-12-29T15:35:20;11.90;99.90
41630;DHT22;27322;49.488;8.480;2023-12-29T15:37:46;11.90;99.90
41630;DHT22;27322;49.488;8.480;2023-12-29T15:40:12;11.90;99.90
41630;DHT22;27322;49.488;8.480;2023-12-29T15:42:38;11.90;99.90
41630;DHT22;27322;49.488;8.480;2023-12-29T15:45:03;11.90;99.90
41630;DHT22;27322;49.488;8.480;2023-12-29T15:47:29;11.80;99.90
41630;DHT22;27322;49.488;8.480;2023-12-29T15:49:54;11.80;99.90
41630;DHT22;27322;49.488;8.480;2023-12-29T15:52:20;11.80;99.90
41630;DHT22;27322;49.488;8.480;2023-12-29T15:54:46;11.80;99.90
41630;DHT22;27322;49.488;8.480;2023-12-29T15:57:11;11.80;99.90